createdAt,value
2022-12-24T00:01:20.650Z,20.65
2022-12-24T00:03:48.740Z,15.73
2022-12-24T00:06:22.676Z,15.50
2022-12-24T00:08:51.570Z,17.60
2022-12-24T00:11:19.582Z,19.63
2022-12-24T00:13:47.155Z,21.95
2022-12-24T00:16:14.405Z,22.27
2022-12-24T00:18:45.936Z,19.25
2022-12-24T00:21:13.901Z,14.13
2022-12-24T00:23:41.309Z,16.35
2022-12-24T00:26:08.785Z,15.52
2022-12-24T00:28:35.967Z,17.70
2022-12-24T00:31:11.336Z,14.48
2022-12-24T00:33:38.532Z,16.50
2022-12-24T00:36:07.120Z,19.33
2022-12-24T00:38:34.352Z,14.45
2022-12-24T00:41:03.005Z,18.25
2022-12-24T00:43:31.065Z,19.60
2022-12-24T00:45:58.759Z,14.40
2022-12-24T00:48:26.018Z,26.33
2022-12-24T00:50:53.169Z,12.70
2022-12-24T00:53:20.388Z,20.95
2022-12-24T00:55:47.782Z,18.45
2022-12-24T00:58:14.981Z,14.63
2022-12-24T01:00:42.174Z,14.27
2022-12-24T01:03:09.504Z,22.35
2022-12-24T01:05:36.631Z,13.57
2022-12-24T01:08:03.848Z,24.98
2022-12-24T01:10:31.009Z,13.38
2022-12-24T01:13:00.905Z,17.17
2022-12-24T01:15:28.113Z,19.52
2022-12-24T01:17:55.384Z,27.27
2022-12-24T01:20:22.720Z,26.60
2022-12-24T01:22:49.804Z,14.10
2022-12-24T01:25:16.907Z,20.48
2022-12-24T01:27:43.997Z,11.13
2022-12-24T01:30:15.135Z,18.80
2022-12-24T01:32:42.296Z,18.67
2022-12-24T01:35:10.388Z,14.63
2022-12-24T01:37:37.475Z,15.57
2022-12-24T01:40:27.327Z,21.58
2022-12-24T01:43:13.059Z,15.27
2022-12-24T01:45:43.115Z,16.50
2022-12-24T01:48:21.515Z,19.10
2022-12-24T01:50:54.484Z,21.35
2022-12-24T01:53:22.051Z,15.43
2022-12-24T01:55:51.691Z,11.68
2022-12-24T01:58:20.104Z,16.48
2022-12-24T02:00:47.377Z,16.40
2022-12-24T02:03:14.775Z,14.35
2022-12-24T02:05:51.466Z,14.10
2022-12-24T02:08:19.697Z,13.18
2022-12-24T02:10:48.140Z,16.48
2022-12-24T02:13:19.223Z,19.23
2022-12-24T02:16:05.693Z,15.60
2022-12-24T02:19:00.615Z,17.73
2022-12-24T02:21:40.924Z,18.60
2022-12-24T02:25:03.316Z,21.55
2022-12-24T02:27:48.441Z,15.18
2022-12-24T02:30:21.792Z,15.10
2022-12-24T02:33:16.243Z,11.17
2022-12-24T02:35:56.318Z,16.92
2022-12-24T02:38:52.751Z,11.38
2022-12-24T02:41:27.168Z,20.30
2022-12-24T02:43:56.386Z,13.23
2022-12-24T02:46:28.084Z,22.38
2022-12-24T02:48:56.701Z,13.77
2022-12-24T02:51:25.031Z,17.67
2022-12-24T02:53:52.568Z,17.40
2022-12-24T02:56:35.011Z,16.63
2022-12-24T02:59:23.188Z,12.13
2022-12-24T03:02:38.044Z,20.27
2022-12-24T03:05:20.063Z,13.60
2022-12-24T03:07:56.022Z,17.65
2022-12-24T03:10:32.163Z,12.43
2022-12-24T03:13:06.380Z,13.35
2022-12-24T03:18:03.447Z,20.42
2022-12-24T03:20:46.893Z,15.82
2022-12-24T03:23:14.661Z,19.50
2022-12-24T03:25:44.456Z,15.00
2022-12-24T03:28:16.868Z,21.10
2022-12-24T03:30:46.414Z,19.10
2022-12-24T03:33:14.284Z,16.52
2022-12-24T03:35:41.560Z,17.70
2022-12-24T03:38:08.755Z,10.32
2022-12-24T03:40:35.858Z,14.75
2022-12-24T03:43:03.001Z,9.07
2022-12-24T03:45:30.314Z,16.65
2022-12-24T03:47:57.465Z,12.35
2022-12-24T03:50:24.626Z,14.95
2022-12-24T03:52:51.703Z,12.68
2022-12-24T03:55:18.829Z,14.02
2022-12-24T03:57:45.961Z,12.80
2022-12-24T04:00:13.592Z,9.05
2022-12-24T04:02:41.330Z,10.38
2022-12-24T04:05:11.726Z,11.57
2022-12-24T04:07:38.925Z,11.05
2022-12-24T04:10:06.532Z,8.88
2022-12-24T04:12:33.734Z,7.47
2022-12-24T04:15:00.847Z,12.10
2022-12-24T04:17:27.893Z,9.38
2022-12-24T04:19:55.141Z,5.57
2022-12-24T04:22:22.396Z,8.43
2022-12-24T04:24:49.486Z,8.70
2022-12-24T04:27:17.869Z,5.28
2022-12-24T04:29:44.949Z,13.10
2022-12-24T04:32:12.082Z,6.35
2022-12-24T04:34:39.267Z,4.00
2022-12-24T04:37:06.320Z,7.00
2022-12-24T04:39:33.512Z,6.80
2022-12-24T04:42:00.703Z,8.98
2022-12-24T04:44:27.803Z,6.57
2022-12-24T04:46:54.896Z,9.73
2022-12-24T04:49:21.921Z,10.80
2022-12-24T04:51:48.986Z,11.32
2022-12-24T04:54:16.415Z,7.18
2022-12-24T04:56:43.658Z,6.13
2022-12-24T04:59:10.858Z,7.50
2022-12-24T05:01:38.394Z,7.50
2022-12-24T05:04:07.035Z,9.55
2022-12-24T05:06:34.981Z,10.13
2022-12-24T05:09:02.218Z,7.60
2022-12-24T05:11:29.975Z,8.52
2022-12-24T05:13:57.236Z,9.80
2022-12-24T05:16:25.255Z,6.55
2022-12-24T05:18:53.070Z,6.30
2022-12-24T05:21:23.304Z,7.05
2022-12-24T05:24:09.475Z,3.85
2022-12-24T05:26:48.539Z,7.13
2022-12-24T05:29:16.675Z,8.20
2022-12-24T05:31:45.394Z,6.22
2022-12-24T05:34:14.657Z,8.48
2022-12-24T05:36:44.347Z,9.90
2022-12-24T05:39:17.003Z,12.30
2022-12-24T05:41:44.591Z,11.32
2022-12-24T05:44:11.848Z,10.32
2022-12-24T05:46:39.516Z,9.30
2022-12-24T05:49:06.712Z,10.20
2022-12-24T05:51:34.503Z,11.77
2022-12-24T05:54:01.614Z,14.45
2022-12-24T05:56:28.939Z,7.30
2022-12-24T05:58:58.233Z,10.68
2022-12-24T06:01:25.614Z,10.23
2022-12-24T06:03:53.119Z,10.45
2022-12-24T06:06:25.610Z,10.40
2022-12-24T06:08:54.800Z,13.73
2022-12-24T06:11:24.856Z,12.95
2022-12-24T06:13:53.822Z,12.90
2022-12-24T06:16:23.023Z,13.48
2022-12-24T06:18:50.494Z,18.38
2022-12-24T06:21:18.557Z,12.70
2022-12-24T06:23:46.686Z,13.63
2022-12-24T06:26:16.639Z,9.15
2022-12-24T06:28:44.960Z,12.30
2022-12-24T06:31:15.894Z,11.77
2022-12-24T06:33:43.750Z,15.55
2022-12-24T06:36:17.844Z,14.00
2022-12-24T06:41:14.062Z,14.05
2022-12-24T06:43:46.019Z,12.45
2022-12-24T06:46:13.798Z,12.90
2022-12-24T06:48:40.978Z,15.13
2022-12-24T06:51:08.122Z,9.30
2022-12-24T06:53:35.215Z,18.98
2022-12-24T06:56:07.241Z,13.75
2022-12-24T06:58:35.972Z,15.90
2022-12-24T07:01:07.704Z,11.30
2022-12-24T07:03:35.263Z,18.45
2022-12-24T07:06:02.513Z,15.25
2022-12-24T07:08:30.264Z,20.55
2022-12-24T07:10:58.941Z,18.98
2022-12-24T07:13:26.295Z,17.88
2022-12-24T07:16:03.148Z,22.05
2022-12-24T07:18:30.846Z,18.25
2022-12-24T07:20:58.646Z,23.40
2022-12-24T07:23:27.329Z,10.80
2022-12-24T07:25:55.579Z,18.05
2022-12-24T07:28:27.793Z,17.25
2022-12-24T07:30:59.147Z,17.42
2022-12-24T07:33:26.777Z,18.73
2022-12-24T07:36:04.780Z,13.55
2022-12-24T07:38:33.217Z,20.15
2022-12-24T07:41:00.609Z,15.32
2022-12-24T07:43:28.924Z,17.75
2022-12-24T07:45:58.035Z,23.90
2022-12-24T07:48:27.075Z,13.43
2022-12-24T07:50:54.538Z,21.73
2022-12-24T07:53:22.016Z,22.60
2022-12-24T07:55:49.358Z,16.15
2022-12-24T07:58:17.746Z,16.95
2022-12-24T08:00:44.820Z,17.65
2022-12-24T08:03:18.867Z,24.92
2022-12-24T08:08:13.938Z,18.20
2022-12-24T08:10:45.530Z,26.77
2022-12-24T08:13:13.105Z,23.30
2022-12-24T08:15:40.186Z,24.67
2022-12-24T08:18:08.384Z,23.48
2022-12-24T08:20:39.386Z,20.70
2022-12-24T08:23:08.110Z,32.33
2022-12-24T08:25:36.591Z,17.38
2022-12-24T08:28:04.716Z,29.85
2022-12-24T08:30:31.863Z,21.42
2022-12-24T08:32:58.959Z,16.15
2022-12-24T08:35:26.105Z,23.85
2022-12-24T08:37:53.164Z,26.52
2022-12-24T08:40:20.399Z,22.75
2022-12-24T08:42:47.628Z,20.85
2022-12-24T08:45:15.161Z,19.23
2022-12-24T08:47:43.398Z,20.13
2022-12-24T08:50:11.093Z,19.70
2022-12-24T08:52:38.324Z,25.55
2022-12-24T08:55:06.124Z,21.08
2022-12-24T08:57:36.723Z,19.90
2022-12-24T09:00:05.745Z,14.27
2022-12-24T09:02:33.125Z,23.00
2022-12-24T09:05:00.528Z,19.10
2022-12-24T09:07:27.740Z,21.20
2022-12-24T09:09:54.881Z,18.10
2022-12-24T09:12:22.582Z,21.17
2022-12-24T09:14:51.807Z,19.15
2022-12-24T09:17:19.068Z,20.17
2022-12-24T09:19:46.609Z,21.38
2022-12-24T09:22:15.609Z,19.27
2022-12-24T09:24:44.057Z,21.58
2022-12-24T09:27:11.206Z,23.35
2022-12-24T09:29:40.860Z,19.02
2022-12-24T09:32:08.513Z,15.48
2022-12-24T09:34:35.704Z,20.75
2022-12-24T09:37:03.396Z,19.45
2022-12-24T09:39:30.565Z,22.02
2022-12-24T09:42:25.830Z,19.42
2022-12-24T09:45:02.966Z,25.65
2022-12-24T09:47:38.555Z,21.40
2022-12-24T09:50:39.273Z,24.45
2022-12-24T09:53:24.289Z,21.63
2022-12-24T09:55:56.891Z,18.50
2022-12-24T09:58:54.837Z,17.58
2022-12-24T10:01:22.038Z,20.60
2022-12-24T10:04:09.157Z,22.23
2022-12-24T10:06:49.509Z,21.17
2022-12-24T10:09:16.518Z,24.85
2022-12-24T10:12:02.032Z,20.55
2022-12-24T10:14:53.752Z,29.65
2022-12-24T10:17:33.019Z,17.17
2022-12-24T10:20:18.975Z,41.63
2022-12-24T10:22:56.932Z,16.73
2022-12-24T10:26:00.768Z,20.02
2022-12-24T10:28:43.225Z,20.88
2022-12-24T10:31:10.851Z,19.48
2022-12-24T10:33:53.929Z,17.42
2022-12-24T10:36:26.998Z,17.27
2022-12-24T10:38:54.276Z,21.35
2022-12-24T10:41:21.859Z,29.55
2022-12-24T10:43:49.897Z,20.98
2022-12-24T10:46:38.117Z,24.67
2022-12-24T10:49:38.990Z,25.60
2022-12-24T10:52:11.495Z,22.20
2022-12-24T10:54:58.589Z,24.25
2022-12-24T10:57:27.022Z,19.30
2022-12-24T10:59:56.352Z,33.22
2022-12-24T11:02:29.820Z,21.83
2022-12-24T11:04:59.545Z,26.75
2022-12-24T11:07:27.727Z,23.08
2022-12-24T11:09:56.522Z,20.65
2022-12-24T11:12:30.565Z,32.88
2022-12-24T11:15:19.207Z,19.08
2022-12-24T11:18:04.075Z,25.83
2022-12-24T11:20:34.691Z,25.58
2022-12-24T11:23:03.040Z,25.10
2022-12-24T11:25:32.549Z,18.30
2022-12-24T11:28:24.487Z,24.77
2022-12-24T11:30:59.234Z,25.55
2022-12-24T11:33:26.879Z,23.35
2022-12-24T11:35:57.684Z,28.17
2022-12-24T11:38:27.265Z,19.10
2022-12-24T11:41:10.043Z,26.30
2022-12-24T11:43:46.233Z,19.30
2022-12-24T11:46:14.964Z,18.25
2022-12-24T11:48:42.161Z,18.63
2022-12-24T11:51:27.705Z,15.02
2022-12-24T11:54:21.472Z,18.65
2022-12-24T11:56:52.691Z,17.05
2022-12-24T11:59:36.939Z,15.15
2022-12-24T12:02:19.705Z,24.25
2022-12-24T12:04:54.468Z,18.40
2022-12-24T12:07:27.359Z,24.33
2022-12-24T12:10:05.120Z,25.80
2022-12-24T12:12:37.161Z,18.50
2022-12-24T12:15:21.080Z,22.65
2022-12-24T12:17:50.820Z,19.73
2022-12-24T12:20:41.736Z,24.20
2022-12-24T12:23:22.065Z,17.90
2022-12-24T12:26:05.084Z,16.42
2022-12-24T12:28:46.053Z,25.80
2022-12-24T12:31:16.268Z,25.15
2022-12-24T12:34:24.049Z,17.88
2022-12-24T12:37:14.945Z,18.58
2022-12-24T12:39:42.762Z,22.27
2022-12-24T12:42:28.637Z,19.00
2022-12-24T12:45:15.118Z,14.60
2022-12-24T12:48:25.948Z,27.00
2022-12-24T12:51:22.510Z,24.83
2022-12-24T12:53:59.790Z,21.73
2022-12-24T12:56:33.376Z,19.05
2022-12-24T12:59:22.110Z,15.02
2022-12-24T13:02:21.981Z,16.17
2022-12-24T13:05:19.551Z,22.95
2022-12-24T13:07:49.772Z,19.03
2022-12-24T13:10:50.800Z,23.05
2022-12-24T13:13:44.637Z,18.55
2022-12-24T13:16:20.706Z,27.25
2022-12-24T13:19:17.124Z,17.48
2022-12-24T13:21:49.126Z,15.25
2022-12-24T13:24:26.930Z,22.33
2022-12-24T13:27:26.339Z,22.25
2022-12-24T13:30:14.821Z,21.77
2022-12-24T13:32:53.601Z,17.30
2022-12-24T13:35:20.801Z,19.00
2022-12-24T13:37:51.818Z,20.65
2022-12-24T13:40:27.479Z,19.92
2022-12-24T13:43:04.981Z,21.30
2022-12-24T13:45:32.128Z,16.60
2022-12-24T13:48:11.346Z,20.00
2022-12-24T13:50:43.932Z,26.55
2022-12-24T13:53:29.923Z,19.08
2022-12-24T13:56:08.662Z,15.18
2022-12-24T13:58:41.085Z,20.42
2022-12-24T14:01:15.202Z,21.27
2022-12-24T14:03:46.731Z,20.83
2022-12-24T14:06:30.778Z,13.63
2022-12-24T14:09:06.161Z,19.10
2022-12-24T14:11:53.305Z,20.42
2022-12-24T14:14:41.389Z,20.65
2022-12-24T14:17:29.938Z,20.65
2022-12-24T14:20:00.447Z,18.63
2022-12-24T14:22:40.432Z,15.30
2022-12-24T14:25:18.086Z,20.15
2022-12-24T14:27:52.583Z,10.95
2022-12-24T14:30:20.485Z,17.88
2022-12-24T14:32:52.712Z,15.90
2022-12-24T14:35:21.657Z,16.95
2022-12-24T14:38:02.276Z,14.88
2022-12-24T14:40:35.073Z,13.93
2022-12-24T14:43:20.828Z,21.33
2022-12-24T14:45:59.637Z,18.30
2022-12-24T14:48:52.947Z,18.58
2022-12-24T14:51:45.141Z,15.38
2022-12-24T14:54:27.631Z,12.02
2022-12-24T14:57:13.070Z,12.95
2022-12-24T14:59:50.373Z,17.65
2022-12-24T15:02:50.643Z,14.63
2022-12-24T15:05:24.828Z,12.27
2022-12-24T15:07:59.065Z,20.83
2022-12-24T15:10:39.511Z,17.42
2022-12-24T15:13:10.086Z,13.07
2022-12-24T15:15:37.489Z,15.95
2022-12-24T15:18:05.941Z,22.13
2022-12-24T15:20:33.368Z,17.05
2022-12-24T15:23:01.130Z,15.02
2022-12-24T15:25:33.189Z,19.48
2022-12-24T15:28:00.420Z,22.08
2022-12-24T15:30:29.450Z,24.27
2022-12-24T15:32:58.617Z,17.45
2022-12-24T15:35:35.745Z,21.60
2022-12-24T15:38:04.395Z,23.55
2022-12-24T15:40:33.608Z,23.48
2022-12-24T15:43:01.381Z,32.70
2022-12-24T15:45:43.514Z,28.00
2022-12-24T15:48:12.511Z,21.35
2022-12-24T15:50:48.283Z,22.83
2022-12-24T15:53:20.595Z,25.58
2022-12-24T15:56:13.898Z,22.67
2022-12-24T15:58:46.092Z,23.60
2022-12-24T16:01:13.660Z,21.42
2022-12-24T16:03:54.709Z,29.65
2022-12-24T16:06:23.510Z,39.35
2022-12-24T16:08:55.377Z,53.65
2022-12-24T16:11:33.984Z,39.40
2022-12-24T16:14:10.203Z,34.90
2022-12-24T16:16:51.982Z,29.83
2022-12-24T16:19:23.505Z,21.95
2022-12-24T16:21:59.507Z,17.60
2022-12-24T16:24:31.342Z,18.40
2022-12-24T16:26:58.851Z,16.33
2022-12-24T16:29:27.887Z,14.80
2022-12-24T16:31:56.042Z,24.77
2022-12-24T16:34:26.309Z,20.75
2022-12-24T16:36:54.017Z,25.75
2022-12-24T16:39:24.068Z,37.28
2022-12-24T16:42:14.950Z,42.78
2022-12-24T16:44:42.872Z,29.27
2022-12-24T16:47:18.781Z,25.77
2022-12-24T16:49:46.018Z,22.67
2022-12-24T16:52:19.579Z,29.00
2022-12-24T16:54:46.633Z,33.70
2022-12-24T16:57:13.955Z,27.63
2022-12-24T16:59:41.263Z,34.22
2022-12-24T17:02:15.060Z,32.63
2022-12-24T17:04:44.203Z,25.85
2022-12-24T17:07:18.582Z,30.60
2022-12-24T17:09:46.111Z,51.60
2022-12-24T17:12:14.468Z,35.60
2022-12-24T17:14:42.560Z,27.42
2022-12-24T17:17:30.648Z,43.40
2022-12-24T17:19:58.552Z,29.08
2022-12-24T17:22:28.103Z,31.50
2022-12-24T17:24:56.589Z,27.73
2022-12-24T17:27:24.214Z,20.23
2022-12-24T17:29:51.982Z,22.33
2022-12-24T17:32:20.239Z,32.35
2022-12-24T17:34:47.680Z,32.92
2022-12-24T17:37:19.803Z,15.88
2022-12-24T17:39:47.172Z,19.83
2022-12-24T17:42:14.523Z,25.02
2022-12-24T17:44:41.913Z,22.60
2022-12-24T17:47:09.541Z,17.30
2022-12-24T17:49:37.024Z,25.02
2022-12-24T17:52:05.202Z,23.80
2022-12-24T17:54:32.513Z,24.63
2022-12-24T17:57:00.141Z,22.02
2022-12-24T17:59:27.615Z,24.05
2022-12-24T18:01:55.630Z,27.35
2022-12-24T18:04:23.211Z,20.52
2022-12-24T18:06:51.283Z,27.33
2022-12-24T18:09:20.437Z,28.55
2022-12-24T18:11:47.961Z,23.13
2022-12-24T18:14:15.658Z,26.90
2022-12-24T18:16:44.404Z,27.10
2022-12-24T18:19:12.942Z,21.80
2022-12-24T18:21:41.075Z,21.40
2022-12-24T18:24:09.777Z,18.48
2022-12-24T18:26:37.350Z,25.30
2022-12-24T18:29:06.090Z,20.73
2022-12-24T18:31:34.873Z,18.65
2022-12-24T18:34:04.470Z,23.38
2022-12-24T18:36:32.671Z,21.67
2022-12-24T18:39:00.445Z,20.35
2022-12-24T18:41:30.526Z,26.80
2022-12-24T18:43:59.004Z,21.92
2022-12-24T18:46:30.365Z,24.88
2022-12-24T18:49:00.041Z,65.15
2022-12-24T18:51:31.439Z,27.83
2022-12-24T18:54:00.701Z,19.42
2022-12-24T18:56:28.047Z,26.08
2022-12-24T18:58:57.332Z,22.50
2022-12-24T19:01:33.401Z,19.55
2022-12-24T19:04:04.170Z,16.67
2022-12-24T19:06:31.622Z,25.85
2022-12-24T19:09:00.725Z,22.35
2022-12-24T19:11:30.999Z,24.35
2022-12-24T19:13:58.476Z,17.90
2022-12-24T19:16:26.727Z,15.43
2022-12-24T19:18:56.552Z,20.25
2022-12-24T19:21:24.484Z,22.00
2022-12-24T19:23:52.549Z,15.98
2022-12-24T19:26:21.022Z,15.13
2022-12-24T19:28:48.904Z,21.08
2022-12-24T19:31:21.396Z,19.40
2022-12-24T19:33:51.062Z,17.05
2022-12-24T19:36:24.205Z,17.23
2022-12-24T19:38:51.635Z,16.80
2022-12-24T19:41:24.536Z,17.77
2022-12-24T19:43:54.643Z,17.48
2022-12-24T19:46:25.058Z,19.35
2022-12-24T19:48:58.326Z,17.08
2022-12-24T19:51:26.817Z,20.00
2022-12-24T19:53:59.539Z,21.08
2022-12-24T19:56:28.835Z,21.90
2022-12-24T19:58:57.735Z,20.85
2022-12-24T20:01:31.542Z,20.58
2022-12-24T20:06:34.014Z,20.83
2022-12-24T20:09:03.217Z,20.50
2022-12-24T20:11:31.130Z,21.63
2022-12-24T20:14:02.002Z,16.42
2022-12-24T20:16:29.932Z,19.90
2022-12-24T20:18:59.812Z,23.65
2022-12-24T20:21:27.675Z,23.10
2022-12-24T20:23:54.936Z,15.95
2022-12-24T20:26:27.914Z,24.30
2022-12-24T20:28:55.688Z,15.60
2022-12-24T20:31:26.538Z,22.05
2022-12-24T20:33:54.353Z,17.77
2022-12-24T20:36:23.512Z,16.50
2022-12-24T20:38:50.899Z,17.60
2022-12-24T20:41:20.439Z,16.92
2022-12-24T20:43:49.070Z,15.63
2022-12-24T20:46:22.567Z,14.32
2022-12-24T20:48:52.086Z,19.20
2022-12-24T20:51:25.417Z,18.42
2022-12-24T20:53:58.352Z,18.37
2022-12-24T20:56:26.396Z,19.10
2022-12-24T20:58:54.023Z,25.27
2022-12-24T21:01:26.558Z,19.98
2022-12-24T21:03:55.784Z,17.70
2022-12-24T21:06:24.582Z,20.52
2022-12-24T21:08:53.198Z,17.98
2022-12-24T21:11:39.845Z,20.58
2022-12-24T21:14:07.440Z,19.05
2022-12-24T21:16:36.158Z,19.52
2022-12-24T21:19:03.647Z,12.70
2022-12-24T21:21:30.930Z,15.60
2022-12-24T21:23:58.668Z,13.07
2022-12-24T21:26:25.727Z,14.55
2022-12-24T21:28:53.853Z,15.65
2022-12-24T21:31:21.484Z,18.95
2022-12-24T21:33:48.764Z,13.57
2022-12-24T21:36:16.212Z,16.17
2022-12-24T21:38:43.671Z,21.25
2022-12-24T21:41:13.840Z,24.15
2022-12-24T21:43:41.797Z,25.58
2022-12-24T21:46:15.206Z,21.33
2022-12-24T21:49:00.646Z,16.92
2022-12-24T21:51:28.648Z,20.27
2022-12-24T21:54:14.986Z,15.65
2022-12-24T21:57:03.948Z,17.65
2022-12-24T21:59:32.231Z,17.50
2022-12-24T22:01:59.999Z,20.30
2022-12-24T22:04:27.373Z,22.30
2022-12-24T22:07:12.926Z,19.85
2022-12-24T22:09:59.079Z,21.02
2022-12-24T22:12:30.377Z,20.25
2022-12-24T22:14:57.648Z,24.67
2022-12-24T22:17:25.805Z,12.18
2022-12-24T22:19:54.499Z,18.00
2022-12-24T22:22:22.907Z,17.00
2022-12-24T22:24:49.969Z,20.25
2022-12-24T22:27:17.204Z,18.80
2022-12-24T22:29:44.375Z,19.63
2022-12-24T22:32:11.608Z,24.15
2022-12-24T22:34:38.700Z,17.60
2022-12-24T22:37:05.783Z,17.15
2022-12-24T22:39:32.772Z,23.83
2022-12-24T22:41:59.849Z,15.80
2022-12-24T22:44:27.203Z,18.45
2022-12-24T22:46:54.354Z,19.70
2022-12-24T22:49:21.433Z,17.48
2022-12-24T22:51:48.680Z,21.58
2022-12-24T22:54:16.256Z,20.30
2022-12-24T22:56:43.321Z,20.58
2022-12-24T22:59:13.946Z,17.00
2022-12-24T23:01:44.796Z,18.70
2022-12-24T23:04:12.740Z,26.20
2022-12-24T23:06:40.588Z,20.38
2022-12-24T23:09:10.101Z,15.73
2022-12-24T23:11:37.413Z,17.55
2022-12-24T23:14:23.156Z,15.23
2022-12-24T23:16:50.516Z,14.68
2022-12-24T23:19:17.622Z,16.02
2022-12-24T23:21:44.738Z,16.25
2022-12-24T23:24:11.858Z,20.00
2022-12-24T23:26:39.111Z,17.05
2022-12-24T23:29:06.767Z,21.38
2022-12-24T23:31:37.945Z,17.65
2022-12-24T23:34:05.152Z,23.35
2022-12-24T23:36:32.219Z,18.85
2022-12-24T23:38:59.477Z,20.80
2022-12-24T23:41:26.754Z,17.48
2022-12-24T23:43:53.967Z,16.25
2022-12-24T23:46:21.424Z,16.55
2022-12-24T23:48:52.821Z,17.20
2022-12-24T23:51:23.810Z,15.25
2022-12-24T23:53:55.517Z,21.08
2022-12-24T23:56:24.086Z,15.18
2022-12-24T23:58:51.262Z,16.90
